sensor_id;sensor_type;location;lat;lon;timestamp;pressure;altitude;pressure_sealevel;temperature;humidity
64835;BME280;51293;59.296;18.006;2022-11-11T00:00:12;100530.63;;;8.93;100.00
64835;BME280;51293;59.296;18.006;2022-11-11T00:02:38;100535.19;;;8.92;100.00
64835;BME280;51293;59.296;18.006;2022-11-11T00:05:03;100530.25;;;8.89;100.00
64835;BME280;51293;59.296;18.006;2022-11-11T00:07:29;100531.00;;;8.96;100.00
64835;BME280;51293;59.296;18.006;2022-11-11T00:09:54;100528.75;;;8.93;100.00
64835;BME280;51293;59.296;18.006;2022-11-11T00:12:20;100528.75;;;8.93;100.00
64835;BME280;51293;59.296;18.006;2022-11-11T00:14:45;100519.75;;;8.99;100.00
64835;BME280;51293;59.296;18.006;2022-11-11T00:17:14;100511.22;;;9.03;100.00
64835;BME280;51293;59.296;18.006;2022-11-11T00:19:57;100495.13;;;9.08;100.00
64835;BME280;51293;59.296;18.006;2022-11-11T00:22:41;100490.56;;;9.08;100.00
64835;BME280;51293;59.296;18.006;2022-11-11T00:25:25;100480.94;;;9.12;100.00
64835;BME280;51293;59.296;18.006;2022-11-11T00:27:51;100469.31;;;9.12;100.00
64835;BME280;51293;59.296;18.006;2022-11-11T00:30:16;100478.50;;;9.11;100.00
64835;BME280;51293;59.296;18.006;2022-11-11T00:32:42;100492.59;;;9.13;100.00
64835;BME280;51293;59.296;18.006;2022-11-11T00:35:07;100499.63;;;9.14;100.00
64835;BME280;51293;59.296;18.006;2022-11-11T00:37:51;100470.97;;;9.13;100.00
64835;BME280;51293;59.296;18.006;2022-11-11T00:40:17;100473.38;;;9.21;100.00
64835;BME280;51293;59.296;18.006;2022-11-11T00:42:42;100474.09;;;9.28;100.00
64835;BME280;51293;59.296;18.006;2022-11-11T00:45:09;100471.59;;;9.26;100.00
64835;BME280;51293;59.296;18.006;2022-11-11T00:47:35;100463.72;;;9.25;100.00
64835;BME280;51293;59.296;18.006;2022-11-11T00:50:24;100464.13;;;9.28;100.00
64835;BME280;51293;59.296;18.006;2022-11-11T00:55:36;100474.47;;;9.32;100.00
64835;BME280;51293;59.296;18.006;2022-11-11T00:58:01;100470.69;;;9.33;100.00
64835;BME280;51293;59.296;18.006;2022-11-11T01:00:27;100462.97;;;9.36;100.00
64835;BME280;51293;59.296;18.006;2022-11-11T01:02:52;100449.56;;;9.41;100.00
64835;BME280;51293;59.296;18.006;2022-11-11T01:05:18;100451.59;;;9.46;100.00
64835;BME280;51293;59.296;18.006;2022-11-11T01:07:44;100471.34;;;9.46;100.00
64835;BME280;51293;59.296;18.006;2022-11-11T01:10:10;100467.34;;;9.49;100.00
64835;BME280;51293;59.296;18.006;2022-11-11T01:12:35;100459.16;;;9.55;100.00
64835;BME280;51293;59.296;18.006;2022-11-11T01:15:01;100461.84;;;9.55;100.00
64835;BME280;51293;59.296;18.006;2022-11-11T01:17:27;100467.75;;;9.64;100.00
64835;BME280;51293;59.296;18.006;2022-11-11T01:19:53;100462.59;;;9.63;100.00
64835;BME280;51293;59.296;18.006;2022-11-11T01:22:18;100457.19;;;9.74;100.00
64835;BME280;51293;59.296;18.006;2022-11-11T01:24:44;100448.16;;;9.69;100.00
64835;BME280;51293;59.296;18.006;2022-11-11T01:27:11;100445.31;;;9.64;100.00
64835;BME280;51293;59.296;18.006;2022-11-11T01:29:36;100428.84;;;9.65;100.00
64835;BME280;51293;59.296;18.006;2022-11-11T01:32:01;100431.94;;;9.69;100.00
64835;BME280;51293;59.296;18.006;2022-11-11T01:34:27;100428.41;;;9.68;100.00
64835;BME280;51293;59.296;18.006;2022-11-11T01:36:52;100422.13;;;9.68;100.00
64835;BME280;51293;59.296;18.006;2022-11-11T01:39:17;100426.03;;;9.72;100.00
64835;BME280;51293;59.296;18.006;2022-11-11T01:41:43;100425.13;;;9.78;100.00
64835;BME280;51293;59.296;18.006;2022-11-11T01:46:51;100453.09;;;9.72;100.00
64835;BME280;51293;59.296;18.006;2022-11-11T01:52:23;100453.66;;;9.74;100.00
64835;BME280;51293;59.296;18.006;2022-11-11T01:55:09;100465.94;;;9.88;100.00
64835;BME280;51293;59.296;18.006;2022-11-11T01:57:40;100442.53;;;9.82;100.00
64835;BME280;51293;59.296;18.006;2022-11-11T02:00:12;100439.69;;;9.77;100.00
64835;BME280;51293;59.296;18.006;2022-11-11T02:05:12;100436.03;;;9.83;100.00
64835;BME280;51293;59.296;18.006;2022-11-11T02:07:58;100424.75;;;9.74;100.00
64835;BME280;51293;59.296;18.006;2022-11-11T02:10:27;100424.88;;;9.79;100.00
64835;BME280;51293;59.296;18.006;2022-11-11T02:12:54;100417.44;;;9.75;100.00
64835;BME280;51293;59.296;18.006;2022-11-11T02:15:39;100415.03;;;9.85;100.00
64835;BME280;51293;59.296;18.006;2022-11-11T02:18:04;100402.03;;;9.75;100.00
64835;BME280;51293;59.296;18.006;2022-11-11T02:20:35;100394.75;;;9.76;100.00
64835;BME280;51293;59.296;18.006;2022-11-11T02:25:39;100368.78;;;9.75;100.00
64835;BME280;51293;59.296;18.006;2022-11-11T02:28:06;100365.63;;;9.78;100.00
64835;BME280;51293;59.296;18.006;2022-11-11T02:30:32;100367.25;;;9.79;100.00
64835;BME280;51293;59.296;18.006;2022-11-11T02:32:58;100355.50;;;9.85;100.00
64835;BME280;51293;59.296;18.006;2022-11-11T02:35:35;100352.19;;;9.83;100.00
64835;BME280;51293;59.296;18.006;2022-11-11T02:38:03;100346.19;;;9.81;100.00
64835;BME280;51293;59.296;18.006;2022-11-11T02:40:36;100346.53;;;9.84;100.00
64835;BME280;51293;59.296;18.006;2022-11-11T02:43:03;100346.44;;;9.91;100.00
64835;BME280;51293;59.296;18.006;2022-11-11T02:45:28;100348.56;;;9.89;100.00
64835;BME280;51293;59.296;18.006;2022-11-11T02:47:53;100343.16;;;9.89;100.00
64835;BME280;51293;59.296;18.006;2022-11-11T02:50:19;100351.16;;;9.96;100.00
64835;BME280;51293;59.296;18.006;2022-11-11T02:52:44;100347.88;;;9.94;100.00
64835;BME280;51293;59.296;18.006;2022-11-11T02:55:10;100351.03;;;10.02;100.00
64835;BME280;51293;59.296;18.006;2022-11-11T02:57:36;100328.31;;;10.03;100.00
64835;BME280;51293;59.296;18.006;2022-11-11T03:00:03;100333.03;;;9.96;100.00
64835;BME280;51293;59.296;18.006;2022-11-11T03:02:29;100318.31;;;10.04;100.00
64835;BME280;51293;59.296;18.006;2022-11-11T03:04:55;100311.97;;;9.98;100.00
64835;BME280;51293;59.296;18.006;2022-11-11T03:07:22;100318.44;;;9.97;100.00
64835;BME280;51293;59.296;18.006;2022-11-11T03:09:48;100311.50;;;10.01;100.00
64835;BME280;51293;59.296;18.006;2022-11-11T03:12:14;100303.41;;;10.01;100.00
64835;BME280;51293;59.296;18.006;2022-11-11T03:14:40;100293.03;;;9.98;100.00
64835;BME280;51293;59.296;18.006;2022-11-11T03:17:05;100295.28;;;10.01;100.00
64835;BME280;51293;59.296;18.006;2022-11-11T03:19:50;100315.38;;;10.05;100.00
64835;BME280;51293;59.296;18.006;2022-11-11T03:22:15;100291.03;;;10.05;100.00
64835;BME280;51293;59.296;18.006;2022-11-11T03:24:41;100301.84;;;10.05;100.00
64835;BME280;51293;59.296;18.006;2022-11-11T03:27:24;100290.78;;;10.07;100.00
64835;BME280;51293;59.296;18.006;2022-11-11T03:29:50;100277.63;;;9.99;100.00
64835;BME280;51293;59.296;18.006;2022-11-11T03:32:15;100286.31;;;10.12;100.00
64835;BME280;51293;59.296;18.006;2022-11-11T03:34:41;100284.91;;;10.10;100.00
64835;BME280;51293;59.296;18.006;2022-11-11T03:37:08;100278.91;;;10.08;100.00
64835;BME280;51293;59.296;18.006;2022-11-11T03:39:52;100274.41;;;10.13;100.00
64835;BME280;51293;59.296;18.006;2022-11-11T03:42:18;100297.22;;;10.18;100.00
64835;BME280;51293;59.296;18.006;2022-11-11T03:44:43;100289.34;;;10.16;100.00
64835;BME280;51293;59.296;18.006;2022-11-11T03:47:08;100292.19;;;10.21;100.00
64835;BME280;51293;59.296;18.006;2022-11-11T03:49:34;100283.03;;;10.22;100.00
64835;BME280;51293;59.296;18.006;2022-11-11T03:51:59;100277.38;;;10.12;100.00
64835;BME280;51293;59.296;18.006;2022-11-11T03:54:24;100277.63;;;10.10;100.00
64835;BME280;51293;59.296;18.006;2022-11-11T03:56:50;100284.91;;;10.10;100.00
64835;BME280;51293;59.296;18.006;2022-11-11T03:59:15;100285.50;;;10.12;100.00
64835;BME280;51293;59.296;18.006;2022-11-11T04:01:40;100277.25;;;10.19;100.00
64835;BME280;51293;59.296;18.006;2022-11-11T04:04:24;100283.13;;;10.16;100.00
64835;BME280;51293;59.296;18.006;2022-11-11T04:07:08;100301.03;;;10.28;100.00
64835;BME280;51293;59.296;18.006;2022-11-11T04:09:52;100308.41;;;10.33;100.00
64835;BME280;51293;59.296;18.006;2022-11-11T04:12:38;100301.22;;;10.38;100.00
64835;BME280;51293;59.296;18.006;2022-11-11T04:15:22;100307.13;;;10.35;100.00
64835;BME280;51293;59.296;18.006;2022-11-11T04:18:06;100291.34;;;10.44;100.00
64835;BME280;51293;59.296;18.006;2022-11-11T04:20:31;100292.84;;;10.40;100.00
64835;BME280;51293;59.296;18.006;2022-11-11T04:23:15;100304.88;;;10.44;100.00
64835;BME280;51293;59.296;18.006;2022-11-11T04:25:41;100283.22;;;10.44;100.00
64835;BME280;51293;59.296;18.006;2022-11-11T04:28:17;100276.16;;;10.43;100.00
64835;BME280;51293;59.296;18.006;2022-11-11T04:31:01;100287.06;;;10.48;100.00
64835;BME280;51293;59.296;18.006;2022-11-11T04:33:26;100293.06;;;10.50;100.00
64835;BME280;51293;59.296;18.006;2022-11-11T04:35:52;100296.81;;;10.49;100.00
64835;BME280;51293;59.296;18.006;2022-11-11T04:38:17;100299.78;;;10.48;100.00
64835;BME280;51293;59.296;18.006;2022-11-11T04:41:01;100292.47;;;10.48;100.00
64835;BME280;51293;59.296;18.006;2022-11-11T04:43:30;100285.75;;;10.51;100.00
64835;BME280;51293;59.296;18.006;2022-11-11T04:45:59;100283.97;;;10.56;100.00
64835;BME280;51293;59.296;18.006;2022-11-11T04:48:25;100273.38;;;10.55;100.00
64835;BME280;51293;59.296;18.006;2022-11-11T04:50:50;100258.66;;;10.51;100.00
64835;BME280;51293;59.296;18.006;2022-11-11T04:53:16;100263.06;;;10.52;100.00
64835;BME280;51293;59.296;18.006;2022-11-11T04:55:43;100251.97;;;10.53;100.00
64835;BME280;51293;59.296;18.006;2022-11-11T04:58:33;100273.06;;;10.51;100.00
64835;BME280;51293;59.296;18.006;2022-11-11T05:00:58;100269.84;;;10.54;100.00
64835;BME280;51293;59.296;18.006;2022-11-11T05:03:24;100274.69;;;10.52;100.00
64835;BME280;51293;59.296;18.006;2022-11-11T05:05:51;100270.28;;;10.63;100.00
64835;BME280;51293;59.296;18.006;2022-11-11T05:08:37;100284.66;;;10.63;100.00
64835;BME280;51293;59.296;18.006;2022-11-11T05:11:30;100286.47;;;10.75;100.00
64835;BME280;51293;59.296;18.006;2022-11-11T05:13:58;100284.84;;;10.74;100.00
64835;BME280;51293;59.296;18.006;2022-11-11T05:19:27;100296.72;;;10.84;100.00
64835;BME280;51293;59.296;18.006;2022-11-11T05:24:47;100290.06;;;11.09;100.00
64835;BME280;51293;59.296;18.006;2022-11-11T05:27:32;100298.66;;;11.17;100.00
64835;BME280;51293;59.296;18.006;2022-11-11T05:29:57;100296.69;;;11.30;99.42
64835;BME280;51293;59.296;18.006;2022-11-11T05:32:23;100283.78;;;11.37;99.24
64835;BME280;51293;59.296;18.006;2022-11-11T05:34:49;100285.09;;;11.51;98.35
64835;BME280;51293;59.296;18.006;2022-11-11T05:37:15;100293.47;;;11.49;98.79
64835;BME280;51293;59.296;18.006;2022-11-11T05:39:41;100289.03;;;11.60;97.55
64835;BME280;51293;59.296;18.006;2022-11-11T05:42:07;100305.47;;;11.70;97.19
64835;BME280;51293;59.296;18.006;2022-11-11T05:44:32;100283.00;;;11.75;96.76
64835;BME280;51293;59.296;18.006;2022-11-11T05:46:57;100287.59;;;11.91;95.97
64835;BME280;51293;59.296;18.006;2022-11-11T05:49:23;100312.63;;;11.93;95.72
64835;BME280;51293;59.296;18.006;2022-11-11T05:51:50;100290.16;;;11.98;95.44
64835;BME280;51293;59.296;18.006;2022-11-11T05:54:16;100303.25;;;12.01;95.34
64835;BME280;51293;59.296;18.006;2022-11-11T05:56:42;100303.13;;;12.13;94.32
64835;BME280;51293;59.296;18.006;2022-11-11T05:59:07;100316.44;;;12.14;94.36
64835;BME280;51293;59.296;18.006;2022-11-11T06:01:33;100312.09;;;12.13;94.31
64835;BME280;51293;59.296;18.006;2022-11-11T06:03:59;100296.13;;;12.17;94.18
64835;BME280;51293;59.296;18.006;2022-11-11T06:06:24;100291.25;;;12.19;94.14
64835;BME280;51293;59.296;18.006;2022-11-11T06:08:50;100289.53;;;12.13;94.51
64835;BME280;51293;59.296;18.006;2022-11-11T06:11:15;100284.41;;;12.16;94.32
64835;BME280;51293;59.296;18.006;2022-11-11T06:13:41;100281.78;;;12.21;93.65
64835;BME280;51293;59.296;18.006;2022-11-11T06:16:06;100278.00;;;12.22;93.43
64835;BME280;51293;59.296;18.006;2022-11-11T06:18:32;100258.50;;;12.25;92.96
64835;BME280;51293;59.296;18.006;2022-11-11T06:20:58;100265.50;;;12.21;93.10
64835;BME280;51293;59.296;18.006;2022-11-11T06:23:25;100264.22;;;12.29;92.63
64835;BME280;51293;59.296;18.006;2022-11-11T06:25:51;100292.75;;;12.31;92.08
64835;BME280;51293;59.296;18.006;2022-11-11T06:28:35;100276.28;;;12.38;91.58
64835;BME280;51293;59.296;18.006;2022-11-11T06:31:00;100278.25;;;12.43;91.29
64835;BME280;51293;59.296;18.006;2022-11-11T06:33:26;100283.44;;;12.44;91.12
64835;BME280;51293;59.296;18.006;2022-11-11T06:35:51;100295.94;;;12.45;91.12
64835;BME280;51293;59.296;18.006;2022-11-11T06:38:17;100286.69;;;12.46;91.04
64835;BME280;51293;59.296;18.006;2022-11-11T06:40:43;100262.59;;;12.50;90.72
64835;BME280;51293;59.296;18.006;2022-11-11T06:43:09;100272.59;;;12.49;90.81
64835;BME280;51293;59.296;18.006;2022-11-11T06:45:35;100272.03;;;12.47;90.66
64835;BME280;51293;59.296;18.006;2022-11-11T06:48:04;100267.50;;;12.53;90.29
64835;BME280;51293;59.296;18.006;2022-11-11T06:50:33;100258.91;;;12.61;89.60
64835;BME280;51293;59.296;18.006;2022-11-11T06:53:10;100266.34;;;12.49;90.64
64835;BME280;51293;59.296;18.006;2022-11-11T06:55:36;100270.72;;;12.50;90.44
64835;BME280;51293;59.296;18.006;2022-11-11T06:58:13;100274.03;;;12.57;89.92
64835;BME280;51293;59.296;18.006;2022-11-11T07:00:41;100276.28;;;12.60;89.88
64835;BME280;51293;59.296;18.006;2022-11-11T07:03:08;100289.34;;;12.63;89.41
64835;BME280;51293;59.296;18.006;2022-11-11T07:05:34;100302.72;;;12.70;89.03
64835;BME280;51293;59.296;18.006;2022-11-11T07:08:01;100276.31;;;12.65;89.19
64835;BME280;51293;59.296;18.006;2022-11-11T07:10:28;100269.84;;;12.66;88.92
64835;BME280;51293;59.296;18.006;2022-11-11T07:12:53;100288.84;;;12.66;89.49
64835;BME280;51293;59.296;18.006;2022-11-11T07:15:19;100271.69;;;12.65;89.20
64835;BME280;51293;59.296;18.006;2022-11-11T07:17:44;100272.75;;;12.59;89.73
64835;BME280;51293;59.296;18.006;2022-11-11T07:20:10;100284.72;;;12.63;89.39
64835;BME280;51293;59.296;18.006;2022-11-11T07:22:35;100286.63;;;12.63;89.26
64835;BME280;51293;59.296;18.006;2022-11-11T07:25:01;100283.88;;;12.58;89.67
64835;BME280;51293;59.296;18.006;2022-11-11T07:27:27;100288.53;;;12.62;89.70
64835;BME280;51293;59.296;18.006;2022-11-11T07:29:52;100282.28;;;12.62;89.53
64835;BME280;51293;59.296;18.006;2022-11-11T07:32:18;100288.25;;;12.64;89.67
64835;BME280;51293;59.296;18.006;2022-11-11T07:34:43;100295.59;;;12.63;89.64
64835;BME280;51293;59.296;18.006;2022-11-11T07:37:09;100281.25;;;12.68;89.51
64835;BME280;51293;59.296;18.006;2022-11-11T07:39:34;100290.50;;;12.67;89.65
64835;BME280;51293;59.296;18.006;2022-11-11T07:41:59;100269.56;;;12.68;89.40
64835;BME280;51293;59.296;18.006;2022-11-11T07:44:25;100290.50;;;12.67;89.79
64835;BME280;51293;59.296;18.006;2022-11-11T07:46:51;100290.72;;;12.65;89.77
64835;BME280;51293;59.296;18.006;2022-11-11T07:49:16;100294.06;;;12.73;89.26
64835;BME280;51293;59.296;18.006;2022-11-11T07:51:41;100295.69;;;12.74;89.08
64835;BME280;51293;59.296;18.006;2022-11-11T07:54:07;100294.31;;;12.71;89.45
64835;BME280;51293;59.296;18.006;2022-11-11T07:56:32;100293.50;;;12.71;89.26
64835;BME280;51293;59.296;18.006;2022-11-11T07:58:57;100294.31;;;12.71;89.64
64835;BME280;51293;59.296;18.006;2022-11-11T08:01:23;100287.31;;;12.75;89.16
64835;BME280;51293;59.296;18.006;2022-11-11T08:03:48;100300.84;;;12.70;89.39
64835;BME280;51293;59.296;18.006;2022-11-11T08:06:20;100305.53;;;12.75;89.54
64835;BME280;51293;59.296;18.006;2022-11-11T08:08:47;100287.88;;;12.77;88.80
64835;BME280;51293;59.296;18.006;2022-11-11T08:11:13;100296.22;;;12.71;89.28
64835;BME280;51293;59.296;18.006;2022-11-11T08:13:38;100296.84;;;12.78;88.91
64835;BME280;51293;59.296;18.006;2022-11-11T08:16:12;100295.47;;;12.75;89.73
64835;BME280;51293;59.296;18.006;2022-11-11T08:18:38;100292.41;;;12.72;89.39
64835;BME280;51293;59.296;18.006;2022-11-11T08:21:04;100305.81;;;12.78;89.09
64835;BME280;51293;59.296;18.006;2022-11-11T08:23:30;100295.47;;;12.75;89.53
64835;BME280;51293;59.296;18.006;2022-11-11T08:26:04;100290.06;;;12.80;89.43
64835;BME280;51293;59.296;18.006;2022-11-11T08:28:31;100301.47;;;12.77;89.45
64835;BME280;51293;59.296;18.006;2022-11-11T08:31:00;100307.16;;;12.76;89.91
64835;BME280;51293;59.296;18.006;2022-11-11T08:33:26;100299.81;;;12.76;89.84
64835;BME280;51293;59.296;18.006;2022-11-11T08:35:52;100314.53;;;12.80;89.66
64835;BME280;51293;59.296;18.006;2022-11-11T08:38:20;100305.88;;;12.83;89.60
64835;BME280;51293;59.296;18.006;2022-11-11T08:40:46;100295.88;;;12.89;89.20
64835;BME280;51293;59.296;18.006;2022-11-11T08:43:11;100305.34;;;12.86;89.60
64835;BME280;51293;59.296;18.006;2022-11-11T08:45:37;100324.13;;;12.88;89.60
64835;BME280;51293;59.296;18.006;2022-11-11T08:48:03;100316.28;;;12.91;89.41
64835;BME280;51293;59.296;18.006;2022-11-11T08:50:28;100317.34;;;12.90;89.16
64835;BME280;51293;59.296;18.006;2022-11-11T08:52:54;100342.41;;;12.92;89.40
64835;BME280;51293;59.296;18.006;2022-11-11T08:55:19;100334.72;;;12.89;89.51
64835;BME280;51293;59.296;18.006;2022-11-11T08:57:45;100352.44;;;12.92;89.67
64835;BME280;51293;59.296;18.006;2022-11-11T09:00:11;100353.53;;;12.91;89.47
64835;BME280;51293;59.296;18.006;2022-11-11T09:02:37;100353.56;;;12.96;89.32
64835;BME280;51293;59.296;18.006;2022-11-11T09:05:03;100345.22;;;13.03;89.16
64835;BME280;51293;59.296;18.006;2022-11-11T09:07:29;100367.72;;;12.98;89.52
64835;BME280;51293;59.296;18.006;2022-11-11T09:09:54;100360.72;;;13.02;89.03
64835;BME280;51293;59.296;18.006;2022-11-11T09:12:20;100355.47;;;12.96;89.78
64835;BME280;51293;59.296;18.006;2022-11-11T09:14:45;100365.59;;;13.00;89.58
64835;BME280;51293;59.296;18.006;2022-11-11T09:17:11;100355.31;;;13.07;88.96
64835;BME280;51293;59.296;18.006;2022-11-11T09:19:36;100360.44;;;13.04;89.14
64835;BME280;51293;59.296;18.006;2022-11-11T09:22:02;100371.31;;;13.04;89.73
64835;BME280;51293;59.296;18.006;2022-11-11T09:24:27;100360.75;;;13.07;89.28
64835;BME280;51293;59.296;18.006;2022-11-11T09:26:53;100380.84;;;13.06;89.04
64835;BME280;51293;59.296;18.006;2022-11-11T09:29:18;100377.06;;;13.07;89.11
64835;BME280;51293;59.296;18.006;2022-11-11T09:31:44;100373.59;;;13.12;89.05
64835;BME280;51293;59.296;18.006;2022-11-11T09:34:10;100395.03;;;13.08;89.30
64835;BME280;51293;59.296;18.006;2022-11-11T09:36:35;100378.00;;;13.18;88.84
64835;BME280;51293;59.296;18.006;2022-11-11T09:39:00;100378.47;;;13.10;89.78
64835;BME280;51293;59.296;18.006;2022-11-11T09:41:46;100366.56;;;13.16;89.12
64835;BME280;51293;59.296;18.006;2022-11-11T09:50:03;100376.44;;;13.22;88.94
64835;BME280;51293;59.296;18.006;2022-11-11T09:55:14;100386.22;;;13.23;89.03
64835;BME280;51293;59.296;18.006;2022-11-11T09:57:57;100403.19;;;13.30;88.80
64835;BME280;51293;59.296;18.006;2022-11-11T10:00:29;100395.81;;;13.26;89.16
64835;BME280;51293;59.296;18.006;2022-11-11T10:03:00;100392.28;;;13.30;89.34
64835;BME280;51293;59.296;18.006;2022-11-11T10:05:58;100395.81;;;13.26;89.21
64835;BME280;51293;59.296;18.006;2022-11-11T10:08:33;100385.75;;;13.26;89.23
64835;BME280;51293;59.296;18.006;2022-11-11T10:11:04;100404.00;;;13.31;89.14
64835;BME280;51293;59.296;18.006;2022-11-11T10:13:37;100429.28;;;13.31;88.97
64835;BME280;51293;59.296;18.006;2022-11-11T10:19:12;100405.97;;;13.35;89.18
64835;BME280;51293;59.296;18.006;2022-11-11T10:21:47;100414.88;;;13.31;89.24
64835;BME280;51293;59.296;18.006;2022-11-11T10:24:27;100425.19;;;13.29;89.57
64835;BME280;51293;59.296;18.006;2022-11-11T10:26:53;100438.59;;;13.35;89.16
64835;BME280;51293;59.296;18.006;2022-11-11T10:29:20;100430.38;;;13.30;89.83
64835;BME280;51293;59.296;18.006;2022-11-11T10:31:55;100438.03;;;13.33;89.36
64835;BME280;51293;59.296;18.006;2022-11-11T10:34:25;100447.03;;;13.34;89.45
64835;BME280;51293;59.296;18.006;2022-11-11T10:36:55;100425.56;;;13.37;88.96
64835;BME280;51293;59.296;18.006;2022-11-11T10:42:15;100425.63;;;13.42;89.30
64835;BME280;51293;59.296;18.006;2022-11-11T10:44:42;100439.22;;;13.42;89.13
64835;BME280;51293;59.296;18.006;2022-11-11T10:50:04;100448.69;;;13.40;89.33
64835;BME280;51293;59.296;18.006;2022-11-11T10:52:37;100453.09;;;13.41;89.52
64835;BME280;51293;59.296;18.006;2022-11-11T11:00:12;100463.44;;;13.44;89.64
64835;BME280;51293;59.296;18.006;2022-11-11T11:05:11;100459.72;;;13.50;89.02
64835;BME280;51293;59.296;18.006;2022-11-11T11:07:45;100456.16;;;13.49;88.92
64835;BME280;51293;59.296;18.006;2022-11-11T11:10:14;100465.72;;;13.52;88.64
64835;BME280;51293;59.296;18.006;2022-11-11T11:12:48;100458.88;;;13.49;88.86
64835;BME280;51293;59.296;18.006;2022-11-11T11:15:21;100479.31;;;13.52;89.38
64835;BME280;51293;59.296;18.006;2022-11-11T11:20:19;100473.53;;;13.48;89.28
64835;BME280;51293;59.296;18.006;2022-11-11T11:22:50;100481.69;;;13.48;88.90
64835;BME280;51293;59.296;18.006;2022-11-11T11:25:18;100479.50;;;13.45;89.60
64835;BME280;51293;59.296;18.006;2022-11-11T11:27:46;100476.03;;;13.50;89.42
64835;BME280;51293;59.296;18.006;2022-11-11T11:30:19;100485.31;;;13.54;88.79
64835;BME280;51293;59.296;18.006;2022-11-11T11:33:00;100479.06;;;13.54;88.68
64835;BME280;51293;59.296;18.006;2022-11-11T11:35:40;100483.94;;;13.52;89.31
64835;BME280;51293;59.296;18.006;2022-11-11T11:38:08;100485.63;;;13.58;88.99
64835;BME280;51293;59.296;18.006;2022-11-11T11:40:55;100494.38;;;13.60;88.81
64835;BME280;51293;59.296;18.006;2022-11-11T11:43:40;100486.75;;;13.62;88.35
64835;BME280;51293;59.296;18.006;2022-11-11T11:46:33;100489.81;;;13.65;88.21
64835;BME280;51293;59.296;18.006;2022-11-11T11:49:16;100489.22;;;13.63;88.36
64835;BME280;51293;59.296;18.006;2022-11-11T11:57:01;100483.09;;;13.78;87.52
64835;BME280;51293;59.296;18.006;2022-11-11T11:59:41;100472.78;;;13.80;87.38
64835;BME280;51293;59.296;18.006;2022-11-11T12:02:37;100471.22;;;13.89;87.27
64835;BME280;51293;59.296;18.006;2022-11-11T12:05:25;100468.50;;;13.89;86.41
64835;BME280;51293;59.296;18.006;2022-11-11T12:13:36;100463.38;;;13.93;86.23
64835;BME280;51293;59.296;18.006;2022-11-11T12:16:15;100466.38;;;13.91;85.99
64835;BME280;51293;59.296;18.006;2022-11-11T12:21:21;100472.63;;;13.92;85.88
64835;BME280;51293;59.296;18.006;2022-11-11T12:24:20;100481.09;;;13.95;86.15
64835;BME280;51293;59.296;18.006;2022-11-11T12:27:00;100482.69;;;13.91;86.31
64835;BME280;51293;59.296;18.006;2022-11-11T12:29:35;100483.53;;;13.97;85.73
64835;BME280;51293;59.296;18.006;2022-11-11T12:32:15;100490.88;;;13.91;86.10
64835;BME280;51293;59.296;18.006;2022-11-11T12:45:41;100502.31;;;13.93;85.35
64835;BME280;51293;59.296;18.006;2022-11-11T12:51:09;100503.41;;;13.92;85.57
64835;BME280;51293;59.296;18.006;2022-11-11T13:09:44;100520.75;;;13.86;85.39
64835;BME280;51293;59.296;18.006;2022-11-11T13:15:13;100538.44;;;13.84;85.88
64835;BME280;51293;59.296;18.006;2022-11-11T13:17:40;100521.47;;;13.76;86.02
64835;BME280;51293;59.296;18.006;2022-11-11T13:20:24;100531.34;;;13.83;85.57
64835;BME280;51293;59.296;18.006;2022-11-11T13:22:52;100536.78;;;13.83;85.54
64835;BME280;51293;59.296;18.006;2022-11-11T13:25:22;100537.09;;;13.86;85.33
64835;BME280;51293;59.296;18.006;2022-11-11T13:27:56;100544.13;;;13.82;85.82
64835;BME280;51293;59.296;18.006;2022-11-11T13:30:53;100558.81;;;13.81;85.96
64835;BME280;51293;59.296;18.006;2022-11-11T13:33:35;100557.75;;;13.82;85.98
64835;BME280;51293;59.296;18.006;2022-11-11T13:36:04;100540.28;;;13.78;86.04
64835;BME280;51293;59.296;18.006;2022-11-11T13:41:05;100548.19;;;13.80;85.69
64835;BME280;51293;59.296;18.006;2022-11-11T13:43:38;100538.94;;;13.81;86.07
64835;BME280;51293;59.296;18.006;2022-11-11T13:46:06;100544.06;;;13.77;86.22
64835;BME280;51293;59.296;18.006;2022-11-11T13:48:51;100540.53;;;13.76;86.05
64835;BME280;51293;59.296;18.006;2022-11-11T13:53:47;100542.69;;;13.74;86.22
64835;BME280;51293;59.296;18.006;2022-11-11T13:56:26;100537.00;;;13.76;85.89
64835;BME280;51293;59.296;18.006;2022-11-11T13:58:54;100541.88;;;13.74;86.34
64835;BME280;51293;59.296;18.006;2022-11-11T14:01:21;100547.31;;;13.74;86.30
64835;BME280;51293;59.296;18.006;2022-11-11T14:13:53;100563.94;;;13.77;86.15
64835;BME280;51293;59.296;18.006;2022-11-11T14:24:45;100587.72;;;13.87;85.17
64835;BME280;51293;59.296;18.006;2022-11-11T14:29:38;100589.69;;;13.92;85.08
64835;BME280;51293;59.296;18.006;2022-11-11T14:32:29;100577.16;;;13.91;85.10
64835;BME280;51293;59.296;18.006;2022-11-11T14:40:32;100571.97;;;13.89;85.70
64835;BME280;51293;59.296;18.006;2022-11-11T14:42:59;100568.13;;;13.85;85.92
64835;BME280;51293;59.296;18.006;2022-11-11T14:51:42;100592.69;;;13.90;86.11
64835;BME280;51293;59.296;18.006;2022-11-11T14:54:22;100598.38;;;13.89;86.07
64835;BME280;51293;59.296;18.006;2022-11-11T14:56:56;100592.06;;;13.83;86.85
64835;BME280;51293;59.296;18.006;2022-11-11T14:59:23;100602.31;;;13.76;87.48
64835;BME280;51293;59.296;18.006;2022-11-11T15:01:53;100597.50;;;13.83;86.85